Time;durP1;ratioP1;P1;durP2;ratioP2;P2;SDS_P1;SDS_P2;PMS_P1;PMS_P2;Temp;Humidity;BMP_temperature;BMP_pressure;BME280_temperature;BME280_humidity;BME280_pressure;Samples;Min_cycle;Max_cycle;Signal;HPM_P1;HPM_P2
2023/10/16 00:00:29;;;;;;;6.03;3.83;;;2.60;99.90;;;;;;5001818;28;20073;-88
2023/10/16 00:02:59;;;;;;;5.30;3.33;;;2.60;99.90;;;;;;5000802;28;20038;-87
2023/10/16 00:05:31;;;;;;;3.88;2.30;;;2.60;99.90;;;;;;5008112;28;20060;-88
2023/10/16 00:08:05;;;;;;;2.10;1.90;;;2.60;99.90;;;;;;5002469;28;20021;-89
2023/10/16 00:10:35;;;;;;;1.60;1.50;;;2.60;99.90;;;;;;5028489;28;20063;-89
2023/10/16 00:13:05;;;;;;;2.08;1.55;;;2.70;99.90;;;;;;5014009;28;20037;-87
2023/10/16 00:15:49;;;;;;;2.85;1.65;;;2.60;99.90;;;;;;5016412;28;20044;-88
2023/10/16 00:18:22;;;;;;;2.28;1.60;;;2.60;99.90;;;;;;5017838;28;20621;-86
2023/10/16 00:20:52;;;;;;;2.88;2.10;;;2.40;99.90;;;;;;5029299;28;20044;-87
2023/10/16 00:23:24;;;;;;;2.58;1.75;;;2.40;99.90;;;;;;5003370;28;20404;-89
2023/10/16 00:25:50;;;;;;;3.42;1.58;;;2.30;99.90;;;;;;5017476;28;20183;-86
2023/10/16 00:28:22;;;;;;;2.88;1.95;;;2.20;99.90;;;;;;5016866;28;20025;-87
2023/10/16 00:30:49;;;;;;;3.30;2.00;;;2.20;99.90;;;;;;5022219;28;20111;-87
2023/10/16 00:33:16;;;;;;;3.92;1.98;;;2.10;99.90;;;;;;5015417;28;20017;-86
2023/10/16 00:35:45;;;;;;;3.45;2.20;;;2.10;99.90;;;;;;4998803;28;20216;-86
2023/10/16 00:38:13;;;;;;;3.75;1.85;;;2.00;99.90;;;;;;5015678;28;20053;-87
2023/10/16 00:41:10;;;;;;;2.35;1.90;;;2.00;99.90;;;;;;5009338;28;20484;-86
2023/10/16 00:43:35;;;;;;;;;;;2.00;99.90;;;;;;4990273;28;20508;-84
2023/10/16 00:46:06;;;;;;;2.30;2.00;;;2.00;99.90;;;;;;5021789;28;19909;-87
2023/10/16 00:48:34;;;;;;;2.22;1.85;;;2.00;99.90;;;;;;5027290;28;20452;-86
2023/10/16 00:51:09;;;;;;;3.85;2.03;;;2.00;99.90;;;;;;5030527;28;20034;-86
2023/10/16 00:53:40;;;;;;;3.38;1.95;;;2.00;99.90;;;;;;5000767;28;20441;-87
2023/10/16 00:56:12;;;;;;;2.92;2.45;;;2.00;99.90;;;;;;5018684;28;20398;-87
2023/10/16 00:58:39;;;;;;;2.72;2.20;;;2.10;99.90;;;;;;5013176;28;20083;-86
2023/10/16 01:01:14;;;;;;;3.50;2.10;;;2.10;99.90;;;;;;5010912;28;20052;-87
2023/10/16 01:03:42;;;;;;;3.92;2.67;;;2.10;99.90;;;;;;5011154;28;20026;-88
2023/10/16 01:06:15;;;;;;;2.35;2.15;;;2.20;99.90;;;;;;5030737;28;20030;-87
2023/10/16 01:08:47;;;;;;;3.67;2.20;;;2.30;99.90;;;;;;5036665;28;20121;-88
2023/10/16 01:11:18;;;;;;;2.85;2.35;;;2.40;99.90;;;;;;5032360;28;20493;-89
2023/10/16 01:13:50;;;;;;;3.92;2.45;;;2.40;99.90;;;;;;5020781;28;20033;-89
2023/10/16 01:16:17;;;;;;;3.70;2.13;;;2.40;99.90;;;;;;5014838;28;20068;-86
2023/10/16 01:18:44;;;;;;;4.45;2.83;;;2.30;99.90;;;;;;5009616;28;20128;-87
2023/10/16 01:21:13;;;;;;;3.45;2.30;;;2.30;99.90;;;;;;5013547;28;20056;-86
2023/10/16 01:23:41;;;;;;;3.20;2.50;;;2.30;99.90;;;;;;5017798;28;20021;-89
2023/10/16 01:26:08;;;;;;;2.92;2.45;;;2.30;99.90;;;;;;5028288;28;20664;-89
2023/10/16 01:28:34;;;;;;;3.88;2.67;;;2.30;99.90;;;;;;5015986;28;20055;-86
2023/10/16 01:31:00;;;;;;;7.03;2.70;;;2.20;99.90;;;;;;5014786;28;20021;-85
2023/10/16 01:33:27;;;;;;;4.15;2.50;;;2.20;99.90;;;;;;5032532;28;20393;-85
2023/10/16 01:35:53;;;;;;;3.80;3.00;;;2.20;99.90;;;;;;5011210;28;20051;-87
2023/10/16 01:38:19;;;;;;;3.50;2.60;;;2.20;99.90;;;;;;5014432;28;20490;-86
2023/10/16 01:43:31;;;;;;;4.00;2.80;;;2.20;99.90;;;;;;5011748;28;20050;-88
2023/10/16 01:46:03;;;;;;;3.83;2.58;;;2.10;99.90;;;;;;5013866;28;20443;-89
2023/10/16 01:48:29;;;;;;;3.58;2.60;;;2.00;99.90;;;;;;4997746;28;20033;-87
2023/10/16 01:50:55;;;;;;;3.97;2.60;;;2.00;99.90;;;;;;4998914;28;20033;-87
2023/10/16 01:53:25;;;;;;;4.05;2.95;;;2.00;99.90;;;;;;5014884;28;20129;-86
2023/10/16 01:55:54;;;;;;;2.42;2.22;;;2.00;99.90;;;;;;5015168;28;20033;-86
2023/10/16 01:58:25;;;;;;;4.00;2.55;;;1.90;99.90;;;;;;5025702;28;20034;-86
2023/10/16 02:00:55;;;;;;;3.53;2.70;;;1.90;99.90;;;;;;5032708;28;20025;-87
2023/10/16 02:03:22;;;;;;;3.20;2.35;;;1.80;99.90;;;;;;5028090;28;20504;-87
2023/10/16 02:05:48;;;;;;;2.58;2.15;;;1.70;99.90;;;;;;4994372;28;20030;-87
2023/10/16 02:08:14;;;;;;;2.40;2.10;;;1.70;99.90;;;;;;5014490;28;20036;-88
2023/10/16 02:10:41;;;;;;;2.53;2.08;;;1.60;99.90;;;;;;4992530;28;20125;-88
2023/10/16 02:13:11;;;;;;;2.70;2.28;;;1.70;99.90;;;;;;5017089;28;20037;-86
2023/10/16 02:15:38;;;;;;;3.00;2.50;;;1.70;99.90;;;;;;5015590;28;20041;-86
2023/10/16 02:18:13;;;;;;;2.47;2.25;;;1.60;99.90;;;;;;5014025;28;20112;-88
2023/10/16 02:20:39;;;;;;;;;;;1.60;99.90;;;;;;5027184;28;20025;-86
2023/10/16 02:23:08;;;;;;;2.60;2.22;;;1.70;99.90;;;;;;5018080;28;19916;-88
2023/10/16 02:25:35;;;;;;;3.08;2.78;;;1.60;99.90;;;;;;5030660;28;20052;-88
2023/10/16 02:28:02;;;;;;;2.72;2.53;;;1.60;99.90;;;;;;5035017;28;20105;-89
2023/10/16 02:30:28;;;;;;;2.78;2.33;;;1.60;99.90;;;;;;5019780;28;20025;-88
2023/10/16 02:33:11;;;;;;;3.20;2.90;;;1.50;99.90;;;;;;5018404;28;20048;-87
2023/10/16 02:35:37;;;;;;;2.65;2.40;;;1.50;99.90;;;;;;5025060;28;20164;-88
2023/10/16 02:38:04;;;;;;;3.47;2.83;;;1.50;99.90;;;;;;5019361;28;20073;-87
2023/10/16 02:40:32;;;;;;;3.28;2.97;;;1.40;99.90;;;;;;5017643;28;20454;-88
2023/10/16 02:43:04;;;;;;;3.42;3.00;;;1.30;99.90;;;;;;5034782;28;20624;-87
2023/10/16 02:45:33;;;;;;;3.53;2.63;;;1.20;99.90;;;;;;5013945;28;20064;-88
2023/10/16 02:47:59;;;;;;;3.58;2.72;;;1.20;99.90;;;;;;5008491;28;20038;-88
2023/10/16 02:50:26;;;;;;;2.63;2.42;;;1.20;99.90;;;;;;5017111;28;20164;-86
2023/10/16 02:52:52;;;;;;;2.88;2.63;;;1.20;99.90;;;;;;5012858;28;20033;-88
2023/10/16 02:55:18;;;;;;;3.28;2.42;;;1.20;99.90;;;;;;5019385;28;20553;-85
2023/10/16 02:57:44;;;;;;;2.00;1.90;;;1.20;99.90;;;;;;5004887;28;20034;-87
2023/10/16 03:00:24;;;;;;;5.80;2.42;;;1.20;99.90;;;;;;5034443;28;20033;-87
2023/10/16 03:02:51;;;;;;;4.07;2.47;;;1.10;99.90;;;;;;5014659;28;20513;-88
2023/10/16 03:05:25;;;;;;;3.10;2.80;;;1.10;99.90;;;;;;5023630;28;20038;-87
2023/10/16 03:07:52;;;;;;;2.60;2.40;;;1.10;99.90;;;;;;5016912;28;20037;-86
2023/10/16 03:10:20;;;;;;;3.47;2.67;;;1.10;99.90;;;;;;5033575;28;20026;-87
2023/10/16 03:12:52;;;;;;;4.35;3.00;;;1.00;99.90;;;;;;5023998;28;20030;-88
2023/10/16 03:15:27;;;;;;;3.03;2.70;;;1.10;99.90;;;;;;5024543;28;20489;-87
2023/10/16 03:17:54;;;;;;;4.53;2.97;;;1.00;99.90;;;;;;5033126;28;20246;-87
2023/10/16 03:20:35;;;;;;;2.83;2.60;;;1.00;99.90;;;;;;4998435;28;20040;-87
2023/10/16 03:23:06;;;;;;;2.67;2.40;;;1.00;99.90;;;;;;5019328;28;20043;-87
2023/10/16 03:28:11;;;;;;;;;;;1.00;99.90;;;;;;5016630;28;20508;-87
2023/10/16 03:30:39;;;;;;;3.47;2.67;;;1.00;99.90;;;;;;5031109;28;19917;-87
2023/10/16 03:33:05;;;;;;;2.60;2.40;;;1.00;99.90;;;;;;5021864;28;20058;-85
2023/10/16 03:35:31;;;;;;;3.35;2.70;;;1.00;99.90;;;;;;5016493;28;20037;-85
2023/10/16 03:38:24;;;;;;;3.72;2.95;;;1.00;99.90;;;;;;5016080;28;20025;-84
2023/10/16 03:40:51;;;;;;;4.18;2.78;;;1.00;99.90;;;;;;5016567;28;20041;-85
2023/10/16 03:43:22;;;;;;;3.08;2.70;;;0.90;99.90;;;;;;5034365;28;20047;-87
2023/10/16 03:45:49;;;;;;;3.10;2.70;;;0.90;99.90;;;;;;5008837;28;20496;-87
2023/10/16 03:48:17;;;;;;;2.80;2.60;;;0.80;99.90;;;;;;5014103;28;20032;-84
2023/10/16 03:50:43;;;;;;;5.03;2.92;;;0.80;99.90;;;;;;5029011;28;20030;-85
2023/10/16 03:53:13;;;;;;;3.78;2.95;;;0.80;99.90;;;;;;5013501;28;20026;-85
2023/10/16 03:55:43;;;;;;;6.93;6.22;;;0.80;99.90;;;;;;5030969;28;20474;-85
2023/10/16 03:58:10;;;;;;;8.35;5.60;;;0.80;99.90;;;;;;5004073;28;20084;-85
2023/10/16 04:00:53;;;;;;;8.95;7.15;;;0.80;99.90;;;;;;5029857;28;20033;-87
2023/10/16 04:03:23;;;;;;;5.82;5.30;;;0.90;99.90;;;;;;5029461;28;20056;-83
2023/10/16 04:05:49;;;;;;;4.88;4.38;;;1.00;99.90;;;;;;4992053;28;20034;-86
2023/10/16 04:08:26;;;;;;;6.65;4.25;;;0.90;99.90;;;;;;5025281;28;20072;-87
2023/10/16 04:10:56;;;;;;;5.63;4.60;;;1.00;99.90;;;;;;5020748;28;20034;-87
2023/10/16 04:13:31;;;;;;;6.07;5.50;;;0.90;99.90;;;;;;5014282;28;20037;-88
2023/10/16 04:16:09;;;;;;;8.00;7.20;;;0.90;99.90;;;;;;5009513;28;20034;-89
2023/10/16 04:18:39;;;;;;;9.43;8.55;;;0.80;99.90;;;;;;4984075;28;20033;-86
2023/10/16 04:21:37;;;;;;;8.50;7.70;;;0.80;99.90;;;;;;5027957;28;20567;-87
2023/10/16 04:24:05;;;;;;;7.65;6.95;;;0.80;99.90;;;;;;5012402;28;20524;-88
2023/10/16 04:26:35;;;;;;;7.22;6.53;;;0.80;99.90;;;;;;4995805;28;20037;-87
2023/10/16 04:31:44;;;;;;;5.25;4.75;;;0.90;99.90;;;;;;5028318;28;20032;-86
2023/10/16 04:36:53;;;;;;;5.78;4.88;;;0.80;99.90;;;;;;5021263;28;20036;-86
2023/10/16 04:45:24;;;;;;;4.15;3.75;;;0.70;99.90;;;;;;5030041;28;19968;-85
2023/10/16 05:11:36;;;;;;;6.10;3.95;;;0.50;99.90;;;;;;5027900;28;20033;-84
2023/10/16 06:14:10;;;;;;;8.55;5.70;;;1.10;99.90;;;;;;5001790;28;20033;-87
2023/10/16 06:16:38;;;;;;;6.55;4.22;;;1.10;99.90;;;;;;5024586;28;20046;-86
2023/10/16 06:19:25;;;;;;;7.25;4.05;;;1.20;99.90;;;;;;4994891;28;20088;-85
2023/10/16 06:21:55;;;;;;;7.00;3.78;;;1.20;99.90;;;;;;5024666;28;20081;-87
2023/10/16 06:24:26;;;;;;;6.93;4.20;;;1.30;99.90;;;;;;5013341;28;20485;-87
2023/10/16 06:26:53;;;;;;;8.52;4.50;;;1.40;99.90;;;;;;4992765;28;20522;-86
2023/10/16 06:29:20;;;;;;;5.68;3.65;;;1.40;99.90;;;;;;5034799;28;20037;-86
2023/10/16 06:31:53;;;;;;;4.75;3.30;;;1.50;99.90;;;;;;4993657;28;20026;-88
2023/10/16 06:34:23;;;;;;;6.45;4.10;;;1.50;99.90;;;;;;5029961;28;20038;-87
2023/10/16 06:36:51;;;;;;;5.03;3.55;;;1.50;99.90;;;;;;5006630;28;20069;-86
2023/10/16 06:39:28;;;;;;;6.78;3.92;;;1.50;99.90;;;;;;5010150;28;20446;-88
2023/10/16 06:41:55;;;;;;;5.05;3.47;;;1.60;99.90;;;;;;5027815;28;20044;-87
2023/10/16 06:44:33;;;;;;;4.88;3.47;;;1.60;99.90;;;;;;5021549;28;20022;-86
2023/10/16 06:46:59;;;;;;;19.85;5.10;;;1.80;99.90;;;;;;5026529;28;20021;-86
2023/10/16 06:49:38;;;;;;;15.27;5.07;;;1.80;99.90;;;;;;5026975;28;20037;-85
2023/10/16 06:52:29;;;;;;;11.77;4.60;;;1.90;99.90;;;;;;5040885;28;20637;-88
2023/10/16 06:54:56;;;;;;;6.50;4.82;;;1.90;99.90;;;;;;5037849;28;20085;-88
2023/10/16 06:57:23;;;;;;;7.20;4.72;;;1.90;99.90;;;;;;5019267;28;20403;-88
2023/10/16 06:59:50;;;;;;;16.05;3.78;;;1.90;99.90;;;;;;5011128;28;20456;-86
2023/10/16 07:02:19;;;;;;;8.77;3.08;;;2.00;99.90;;;;;;5004116;28;20410;-87
2023/10/16 07:04:46;;;;;;;5.13;3.70;;;2.00;99.90;;;;;;5038442;28;20037;-87
2023/10/16 07:07:16;;;;;;;4.20;3.33;;;2.00;99.90;;;;;;5022128;28;20029;-86
2023/10/16 07:09:49;;;;;;;5.03;3.72;;;2.10;99.90;;;;;;5017816;28;20029;-88
2023/10/16 07:12:18;;;;;;;5.72;3.85;;;2.10;99.90;;;;;;5006756;28;20041;-87
2023/10/16 07:14:57;;;;;;;5.75;4.22;;;2.20;99.90;;;;;;5037902;28;20117;-87
2023/10/16 07:17:28;;;;;;;15.80;3.97;;;2.30;99.90;;;;;;5035542;28;20048;-87
2023/10/16 07:20:00;;;;;;;5.78;4.18;;;2.30;99.90;;;;;;5034823;28;20029;-87
2023/10/16 07:22:32;;;;;;;6.07;4.03;;;2.30;99.90;;;;;;5046829;28;20178;-86
2023/10/16 07:27:57;;;;;;;5.57;3.97;;;2.40;99.90;;;;;;5014955;28;20040;-87
2023/10/16 07:30:25;;;;;;;7.93;4.57;;;2.40;99.90;;;;;;5014821;28;20034;-84
2023/10/16 07:32:51;;;;;;;4.88;3.78;;;2.50;99.90;;;;;;5027543;28;20041;-85
2023/10/16 07:35:21;;;;;;;5.28;4.22;;;2.50;99.90;;;;;;5019291;28;20026;-87
2023/10/16 07:37:49;;;;;;;7.40;3.85;;;2.50;99.90;;;;;;5020131;28;20045;-86
2023/10/16 07:40:21;;;;;;;7.78;4.07;;;2.50;99.90;;;;;;5013158;28;20040;-85
2023/10/16 07:42:52;;;;;;;5.63;3.92;;;2.50;99.90;;;;;;5018673;28;20120;-86
2023/10/16 07:45:19;;;;;;;20.92;4.07;;;2.60;99.90;;;;;;5015787;28;20125;-86
2023/10/16 07:47:48;;;;;;;8.77;3.42;;;2.60;99.90;;;;;;4994081;28;20049;-85
2023/10/16 07:50:17;;;;;;;35.10;4.65;;;2.60;99.90;;;;;;5018410;28;20519;-85
2023/10/16 07:52:43;;;;;;;24.52;4.18;;;2.30;99.90;;;;;;5009612;28;20554;-86
2023/10/16 07:55:19;;;;;;;19.27;5.03;;;2.30;99.90;;;;;;5033217;28;20033;-86
2023/10/16 07:57:47;;;;;;;21.20;4.40;;;2.20;99.90;;;;;;5036843;28;20112;-87
2023/10/16 08:00:14;;;;;;;5.20;4.15;;;2.10;99.90;;;;;;5012180;28;20036;-85
2023/10/16 08:02:45;;;;;;;6.15;4.50;;;2.10;99.90;;;;;;5028071;28;20029;-87
2023/10/16 08:05:15;;;;;;;5.05;3.70;;;2.20;99.90;;;;;;5014861;28;20678;-87
2023/10/16 08:07:46;;;;;;;6.05;4.32;;;2.30;99.90;;;;;;5015959;28;20064;-87
2023/10/16 08:10:40;;;;;;;74.40;7.55;;;2.40;99.90;;;;;;4992283;28;20088;-86
2023/10/16 08:13:12;;;;;;;9.73;4.50;;;2.40;99.90;;;;;;5008205;28;20025;-85
2023/10/16 08:15:44;;;;;;;16.55;5.60;;;2.40;99.90;;;;;;5001192;28;20060;-86
2023/10/16 08:18:13;;;;;;;21.67;6.22;;;2.50;99.90;;;;;;5036673;28;20039;-88
2023/10/16 08:23:24;;;;;;;6.68;5.07;;;2.50;99.90;;;;;;5046794;28;20409;-88
2023/10/16 08:25:49;;;;;;;19.90;5.55;;;2.60;99.90;;;;;;5029429;28;20040;-87
2023/10/16 08:28:35;;;;;;;7.18;5.05;;;2.60;99.90;;;;;;4998466;28;20029;-87
2023/10/16 08:33:59;;;;;;;17.17;5.75;;;2.70;99.90;;;;;;5040949;28;20477;-88
2023/10/16 08:36:26;;;;;;;10.50;5.15;;;2.90;99.90;;;;;;5021274;28;20128;-87
2023/10/16 08:38:53;;;;;;;7.70;5.03;;;2.90;99.90;;;;;;5019350;28;20473;-87
2023/10/16 08:41:51;;;;;;;7.88;5.03;;;2.90;99.90;;;;;;5026605;28;20018;-87
2023/10/16 08:44:18;;;;;;;6.97;5.15;;;3.00;99.90;;;;;;5014386;28;20385;-88
2023/10/16 08:46:45;;;;;;;7.65;5.28;;;3.00;99.90;;;;;;5015455;28;20033;-86
2023/10/16 08:49:11;;;;;;;7.05;5.32;;;3.20;99.90;;;;;;5017450;28;20067;-85
2023/10/16 08:51:38;;;;;;;16.63;5.93;;;3.30;99.90;;;;;;5022855;28;20033;-87
2023/10/16 08:54:05;;;;;;;7.50;5.43;;;3.40;99.90;;;;;;5013214;28;20033;-85
2023/10/16 08:56:32;;;;;;;7.22;5.15;;;3.50;99.90;;;;;;5013876;28;20039;-86
2023/10/16 08:59:01;;;;;;;7.47;4.90;;;3.60;99.90;;;;;;5031098;28;20037;-88
2023/10/16 09:01:28;;;;;;;9.25;5.28;;;3.70;99.90;;;;;;5011423;28;20029;-87
2023/10/16 09:04:08;;;;;;;7.90;5.10;;;3.80;99.90;;;;;;5025263;28;20037;-88
2023/10/16 09:06:37;;;;;;;8.50;4.32;;;3.90;99.90;;;;;;5010022;28;20038;-87
2023/10/16 09:09:13;;;;;;;6.45;4.68;;;4.00;99.90;;;;;;5015069;28;20396;-87
2023/10/16 09:11:40;;;;;;;12.05;5.40;;;4.00;99.90;;;;;;5021637;28;20033;-88
2023/10/16 09:14:07;;;;;;;7.22;5.30;;;4.00;99.90;;;;;;5024773;28;20021;-88
2023/10/16 09:16:58;;;;;;;7.18;4.97;;;4.00;99.90;;;;;;5038560;28;20052;-87
2023/10/16 09:19:34;;;;;;;7.13;5.05;;;4.10;99.90;;;;;;5032268;28;20481;-87
2023/10/16 09:22:10;;;;;;;5.63;4.03;;;4.10;99.90;;;;;;5023696;28;20061;-86
2023/10/16 09:24:36;;;;;;;10.23;6.07;;;4.20;99.90;;;;;;5007724;28;20041;-88
2023/10/16 09:27:18;;;;;;;8.65;5.85;;;4.20;99.90;;;;;;5015242;28;20041;-87
2023/10/16 09:29:53;;;;;;;13.10;6.53;;;4.10;99.90;;;;;;5002268;28;20033;-88
2023/10/16 09:32:27;;;;;;;8.67;5.87;;;4.20;99.90;;;;;;5016843;28;20033;-86
2023/10/16 09:34:53;;;;;;;11.77;7.32;;;4.10;99.90;;;;;;5013700;28;20273;-88
2023/10/16 09:37:31;;;;;;;14.68;7.85;;;4.10;99.90;;;;;;4997674;28;20030;-87
2023/10/16 09:43:05;;;;;;;10.65;7.38;;;4.10;99.90;;;;;;5047269;28;20496;-88
2023/10/16 09:45:36;;;;;;;10.55;6.95;;;4.20;99.90;;;;;;5017007;28;20509;-87
2023/10/16 09:48:07;;;;;;;10.23;6.93;;;4.20;99.90;;;;;;5015417;28;20033;-87
2023/10/16 09:50:35;;;;;;;16.00;7.40;;;4.20;99.90;;;;;;5009718;28;20038;-88
2023/10/16 09:53:01;;;;;;;9.90;7.07;;;4.30;99.90;;;;;;5016101;28;20102;-87
2023/10/16 09:55:32;;;;;;;12.63;8.00;;;4.20;99.90;;;;;;5036607;28;20029;-88
2023/10/16 09:58:03;;;;;;;10.85;7.22;;;4.20;99.90;;;;;;5053787;28;20090;-87
2023/10/16 10:00:32;;;;;;;13.15;7.68;;;4.20;99.90;;;;;;5031777;28;20025;-87
2023/10/16 10:03:05;;;;;;;12.55;7.97;;;4.20;99.90;;;;;;5015665;28;20034;-87
2023/10/16 10:08:38;;;;;;;10.60;7.15;;;4.40;99.90;;;;;;5030858;28;20076;-86
2023/10/16 10:14:26;;;;;;;11.27;7.32;;;4.60;99.90;;;;;;5028768;28;20478;-87
2023/10/16 10:16:58;;;;;;;10.25;7.10;;;4.70;99.90;;;;;;5001758;28;20124;-85
2023/10/16 10:19:31;;;;;;;12.10;8.15;;;4.70;99.90;;;;;;4993032;28;20741;-84
2023/10/16 10:22:06;;;;;;;10.77;6.70;;;4.70;99.90;;;;;;4994114;28;20079;-85
2023/10/16 10:24:36;;;;;;;13.48;7.50;;;4.70;99.90;;;;;;5022765;28;20029;-85
2023/10/16 10:27:11;;;;;;;12.15;8.32;;;4.70;99.90;;;;;;5008017;28;20421;-88
2023/10/16 10:29:42;;;;;;;15.52;8.80;;;4.80;99.90;;;;;;5000956;28;20033;-85
2023/10/16 10:32:13;;;;;;;14.60;8.18;;;4.90;99.90;;;;;;4995095;28;20030;-88
2023/10/16 10:34:42;;;;;;;11.23;7.35;;;5.00;99.90;;;;;;5004306;28;20041;-88
2023/10/16 10:37:45;;;;;;;11.32;8.23;;;5.00;99.90;;;;;;5025687;28;20031;-87
2023/10/16 10:40:33;;;;;;;11.73;7.93;;;5.00;99.90;;;;;;4983304;28;20046;-86
2023/10/16 10:43:02;;;;;;;13.25;7.95;;;5.00;99.90;;;;;;5013763;28;20033;-86
2023/10/16 10:45:36;;;;;;;12.13;7.45;;;5.10;99.90;;;;;;5025262;28;20033;-86
2023/10/16 10:48:10;;;;;;;12.93;7.88;;;5.20;99.90;;;;;;5016693;28;20021;-86
2023/10/16 10:50:56;;;;;;;10.50;7.38;;;5.30;99.90;;;;;;5030336;28;20044;-88
2023/10/16 10:53:24;;;;;;;10.25;7.22;;;5.40;99.90;;;;;;5007937;28;20666;-87
2023/10/16 10:55:58;;;;;;;12.82;7.85;;;5.50;99.90;;;;;;5013969;28;20043;-88
2023/10/16 10:58:37;;;;;;;10.88;7.13;;;5.50;99.90;;;;;;5031698;28;20080;-88
2023/10/16 11:01:16;;;;;;;11.07;7.32;;;5.50;99.90;;;;;;5027574;28;20034;-86
2023/10/16 11:03:46;;;;;;;11.68;8.02;;;5.50;99.90;;;;;;4986377;28;20069;-86
2023/10/16 11:06:19;;;;;;;13.27;7.53;;;5.50;99.90;;;;;;5015101;28;20502;-87
2023/10/16 11:08:50;;;;;;;10.80;8.00;;;5.60;99.90;;;;;;5023644;28;20082;-88
2023/10/16 11:11:16;;;;;;;11.00;7.50;;;5.60;99.90;;;;;;5009216;28;20037;-88
2023/10/16 11:13:48;;;;;;;12.73;7.25;;;5.70;99.90;;;;;;5037865;28;20029;-87
2023/10/16 11:16:15;;;;;;;14.52;8.98;;;5.70;99.90;;;;;;5002991;28;20044;-86
2023/10/16 11:18:59;;;;;;;10.25;7.40;;;5.80;99.90;;;;;;5025690;28;20030;-87
2023/10/16 11:21:28;;;;;;;10.70;7.00;;;5.90;99.90;;;;;;5014780;28;20634;-88
2023/10/16 11:23:55;;;;;;;9.65;7.25;;;6.00;99.90;;;;;;5024210;28;20080;-86
2023/10/16 11:26:27;;;;;;;12.38;7.80;;;6.10;99.90;;;;;;5019409;28;20032;-87
2023/10/16 11:28:54;;;;;;;11.98;7.72;;;6.10;99.90;;;;;;5015275;28;20034;-88
2023/10/16 11:31:21;;;;;;;10.07;7.47;;;6.00;99.90;;;;;;5005903;28;20037;-86
2023/10/16 11:34:12;;;;;;;9.73;7.18;;;6.10;99.90;;;;;;5016993;28;20570;-87
2023/10/16 11:36:42;;;;;;;11.65;7.65;;;6.10;99.90;;;;;;5023142;28;20044;-87
2023/10/16 11:39:08;;;;;;;10.77;7.25;;;6.10;99.90;;;;;;5028188;28;20029;-87
2023/10/16 11:41:36;;;;;;;14.10;8.45;;;6.10;99.90;;;;;;5026636;28;20026;-87
2023/10/16 11:44:09;;;;;;;14.82;8.88;;;6.20;99.90;;;;;;5015115;28;20065;-87
2023/10/16 11:46:39;;;;;;;9.57;7.55;;;6.20;99.90;;;;;;5031294;28;20105;-87
2023/10/16 11:51:49;;;;;;;10.05;6.85;;;6.30;99.90;;;;;;5024483;28;20056;-87
2023/10/16 11:54:20;;;;;;;9.60;7.25;;;6.30;99.90;;;;;;5011626;28;20026;-85
2023/10/16 11:56:53;;;;;;;12.05;7.70;;;6.30;99.90;;;;;;5030232;28;20116;-86
2023/10/16 11:59:24;;;;;;;9.43;7.18;;;6.40;99.90;;;;;;5029166;28;20168;-86
2023/10/16 12:01:53;;;;;;;10.63;6.65;;;6.40;99.90;;;;;;5013295;28;20094;-85
2023/10/16 12:04:23;;;;;;;8.20;6.63;;;6.50;99.90;;;;;;5011456;28;20116;-86
2023/10/16 12:06:49;;;;;;;9.05;6.82;;;6.50;99.90;;;;;;4994680;28;20038;-85
2023/10/16 12:09:22;;;;;;;9.48;7.00;;;6.60;99.90;;;;;;5012983;28;20095;-85
2023/10/16 12:11:49;;;;;;;8.00;6.07;;;6.60;99.90;;;;;;4993548;28;20449;-84
2023/10/16 12:14:19;;;;;;;9.38;6.50;;;6.80;99.90;;;;;;5010614;28;20030;-85
2023/10/16 12:16:47;;;;;;;7.93;5.68;;;6.90;99.90;;;;;;5008831;28;20034;-84
2023/10/16 12:19:14;;;;;;;7.70;5.78;;;7.00;99.90;;;;;;4988313;28;20041;-85
2023/10/16 12:21:41;;;;;;;7.72;5.47;;;7.10;99.90;;;;;;5009317;28;20030;-88
2023/10/16 12:24:10;;;;;;;9.18;5.57;;;7.20;99.90;;;;;;5024797;28;20034;-85
2023/10/16 12:26:40;;;;;;;7.50;5.20;;;7.30;99.90;;;;;;4996328;28;20038;-85
2023/10/16 12:29:08;;;;;;;7.30;4.97;;;7.30;99.90;;;;;;5010752;28;20132;-85
2023/10/16 12:31:40;;;;;;;5.72;3.92;;;7.30;99.90;;;;;;4990309;28;20050;-84
2023/10/16 12:34:11;;;;;;;7.88;4.82;;;7.40;99.90;;;;;;4998842;28;20030;-85
2023/10/16 12:36:42;;;;;;;8.48;4.20;;;7.50;99.90;;;;;;5016980;28;20068;-87
2023/10/16 12:39:17;;;;;;;5.88;3.67;;;7.60;99.90;;;;;;5016281;28;20642;-86
2023/10/16 12:41:44;;;;;;;4.50;3.28;;;7.80;99.90;;;;;;5017341;28;20406;-87
2023/10/16 12:44:10;;;;;;;3.92;2.63;;;8.00;99.90;;;;;;5001117;28;20033;-87
2023/10/16 12:46:37;;;;;;;3.42;2.78;;;8.20;99.90;;;;;;5033271;28;20061;-86
2023/10/16 12:49:06;;;;;;;2.80;2.17;;;8.30;99.90;;;;;;5032431;28;20029;-87
2023/10/16 12:51:34;;;;;;;2.72;2.13;;;8.40;99.90;;;;;;5003704;28;20025;-85
2023/10/16 12:54:05;;;;;;;3.78;2.15;;;8.50;99.90;;;;;;5024888;28;20433;-87
2023/10/16 12:56:32;;;;;;;4.95;1.35;;;8.50;99.90;;;;;;5023041;28;20485;-87
2023/10/16 12:59:03;;;;;;;4.65;1.25;;;8.60;99.90;;;;;;5014543;28;20421;-86
2023/10/16 13:01:29;;;;;;;3.80;1.40;;;8.50;99.90;;;;;;5007027;28;20040;-86
2023/10/16 13:04:00;;;;;;;2.75;1.40;;;8.40;99.90;;;;;;5026670;28;20112;-86
2023/10/16 13:06:30;;;;;;;2.45;1.10;;;8.40;99.90;;;;;;4993134;28;20048;-86
2023/10/16 13:08:57;;;;;;;2.78;1.05;;;8.40;99.90;;;;;;4990402;28;20061;-85
2023/10/16 13:11:24;;;;;;;5.90;1.42;;;8.40;99.90;;;;;;5024665;28;20056;-85
2023/10/16 13:13:51;;;;;;;1.85;1.25;;;8.30;99.90;;;;;;5010146;28;20033;-87
2023/10/16 13:16:24;;;;;;;1.88;1.30;;;8.20;99.90;;;;;;5022780;28;20064;-87
2023/10/16 13:18:57;;;;;;;2.28;1.15;;;8.10;99.90;;;;;;5011973;28;20068;-85
2023/10/16 13:21:33;;;;;;;1.33;0.80;;;8.00;99.90;;;;;;5011468;28;20276;-87
2023/10/16 13:24:05;;;;;;;1.75;1.02;;;7.90;99.90;;;;;;5011346;28;20703;-88
2023/10/16 13:26:36;;;;;;;4.10;1.20;;;7.80;99.90;;;;;;5013571;28;20041;-87
2023/10/16 13:29:08;;;;;;;5.72;3.92;;;7.70;99.90;;;;;;5007873;28;20036;-87
2023/10/16 13:31:42;;;;;;;3.28;2.30;;;7.70;99.90;;;;;;4998444;28;20726;-87
2023/10/16 13:34:11;;;;;;;1.73;0.70;;;7.60;99.90;;;;;;5027898;28;20100;-87
2023/10/16 13:36:37;;;;;;;2.42;0.47;;;7.50;99.90;;;;;;5013598;28;20232;-86
2023/10/16 13:39:08;;;;;;;2.35;0.60;;;7.40;99.90;;;;;;5011464;28;20045;-84
2023/10/16 13:41:50;;;;;;;1.88;0.50;;;7.40;99.90;;;;;;4993966;28;20398;-85
2023/10/16 13:44:25;;;;;;;0.95;0.47;;;7.30;99.90;;;;;;5013812;28;20068;-85
2023/10/16 13:46:51;;;;;;;;;;;7.20;99.90;;;;;;5036715;28;20739;-84
2023/10/16 13:49:18;;;;;;;3.95;0.65;;;7.20;99.90;;;;;;5006087;28;20306;-84
2023/10/16 13:51:45;;;;;;;3.10;0.73;;;7.10;99.90;;;;;;5010286;28;20156;-86
2023/10/16 13:54:12;;;;;;;2.17;0.50;;;7.10;99.90;;;;;;5025846;28;20033;-83
2023/10/16 13:56:38;;;;;;;2.38;0.45;;;7.10;99.90;;;;;;5024686;28;20099;-83
2023/10/16 13:59:06;;;;;;;2.15;0.47;;;7.10;99.90;;;;;;5010669;28;20030;-83
2023/10/16 14:01:38;;;;;;;0.52;0.20;;;7.00;99.90;;;;;;4991073;28;20030;-84
2023/10/16 14:04:11;;;;;;;1.30;0.40;;;7.00;99.90;;;;;;5010610;28;20037;-84
2023/10/16 14:06:40;;;;;;;2.05;0.30;;;7.00;99.90;;;;;;5013054;28;20037;-84
2023/10/16 14:09:11;;;;;;;1.85;0.40;;;6.90;99.90;;;;;;4997120;28;20034;-85
2023/10/16 14:11:47;;;;;;;1.10;0.60;;;6.90;99.90;;;;;;5025713;28;20033;-86
2023/10/16 14:14:18;;;;;;;2.72;0.43;;;6.90;99.90;;;;;;5022263;28;20189;-87
2023/10/16 14:16:52;;;;;;;1.13;0.50;;;6.90;99.90;;;;;;5009293;28;20048;-85
2023/10/16 14:19:22;;;;;;;5.22;0.50;;;6.90;99.90;;;;;;5013072;28;20095;-87
2023/10/16 14:21:56;;;;;;;2.17;0.50;;;6.90;99.90;;;;;;5005896;28;20096;-85
2023/10/16 14:24:24;;;;;;;1.33;0.43;;;6.90;99.90;;;;;;5015679;28;20038;-85
2023/10/16 14:26:58;;;;;;;1.95;0.98;;;6.80;99.90;;;;;;5016567;28;20034;-84
2023/10/16 14:29:28;;;;;;;1.27;0.40;;;6.80;99.90;;;;;;4989900;28;20053;-83
2023/10/16 14:31:56;;;;;;;4.22;0.50;;;6.80;99.90;;;;;;5038928;28;20036;-84
2023/10/16 14:34:22;;;;;;;3.00;0.80;;;6.80;99.90;;;;;;5030072;28;20032;-85
2023/10/16 14:36:50;;;;;;;2.15;0.82;;;6.80;99.90;;;;;;5012765;28;20045;-84
2023/10/16 14:39:17;;;;;;;5.40;0.63;;;6.70;99.90;;;;;;5026493;28;20046;-84
2023/10/16 14:41:44;;;;;;;1.60;0.60;;;6.70;99.90;;;;;;5010698;28;20040;-85
2023/10/16 14:44:11;;;;;;;3.33;0.73;;;6.80;99.90;;;;;;5017364;28;20034;-85
2023/10/16 14:46:37;;;;;;;1.95;0.73;;;6.80;99.90;;;;;;5007669;28;20030;-84
2023/10/16 14:49:09;;;;;;;3.17;1.02;;;6.80;99.90;;;;;;5012957;28;20034;-85
2023/10/16 14:51:39;;;;;;;2.63;0.68;;;6.80;99.90;;;;;;5011726;28;20026;-84
2023/10/16 14:54:10;;;;;;;1.70;0.80;;;6.80;99.90;;;;;;5013028;28;20087;-84
2023/10/16 14:56:37;;;;;;;4.85;0.80;;;6.80;99.90;;;;;;5027479;28;20685;-84
2023/10/16 14:59:26;;;;;;;1.83;0.70;;;6.70;99.90;;;;;;5012631;28;20312;-84
2023/10/16 15:01:53;;;;;;;4.68;2.15;;;6.70;99.90;;;;;;5019732;28;20041;-86
2023/10/16 15:04:25;;;;;;;0.95;0.77;;;6.60;99.90;;;;;;5026674;28;20052;-85
2023/10/16 15:06:51;;;;;;;3.25;0.93;;;6.60;99.90;;;;;;5019707;28;20113;-84
2023/10/16 15:09:17;;;;;;;1.95;0.82;;;6.50;99.90;;;;;;4997679;28;20092;-84
2023/10/16 15:11:43;;;;;;;1.80;0.88;;;6.50;99.90;;;;;;5014603;28;20216;-85
2023/10/16 15:14:12;;;;;;;1.00;0.80;;;6.40;99.90;;;;;;4996438;28;20025;-86